Latest Weather Observations for Holmes Reef

IDQ60801

Issued at 1:02 pm EST Tuesday 28 July 2015 (issued every 30 minutes, with the page automatically refreshed every 10 minutes)

About weather observations | Map of weather stations | Latest weather observations for QLD | Other Formats
Station Details ID: 200732 Name: HOLMES REEF Lat: -16.47 Lon: 147.87 Height: 1.9 m
Data from the previous 72 hours. | See also: Recent months at Holmes Reef
Date/Time
EST
Temp
°C
App
Temp
°C
Dew
Point
Rel
Hum
%
Delta-T
°C
Wind Press
QNH
hPa
Press
MSL
hPa
Rain
since 9 am
mm
Dir
 
Spd
km/h
Gust
km/h
Spd
kts
Gust
kts
28/12:30pm 25.0 - - - - ESE 39 46 21 25 1019.1 - -
28/12:15pm 25.0 - - - - ESE 41 - 22 - - 1019.1 -
28/12:00pm 25.1 - - - - ESE 41 46 22 25 1019.6 - -
28/11:30am 24.9 - - - - ESE 41 46 22 25 1019.9 - -
28/11:15am 25.1 - - - - ESE 43 - 23 - - 1019.8 -
28/11:00am 24.9 - - - - ESE 39 46 21 25 1020.2 - -
28/10:30am 24.8 - - - - ESE 39 48 21 26 1020.3 - -
28/10:15am 25.0 - - - - ESE 43 - 23 - - 1020.0 -
28/10:00am 24.9 - - - - ESE 44 50 24 27 1020.3 - -
28/09:30am 24.9 - - - - ESE 41 48 22 26 1020.3 - -
28/09:15am 24.8 - - - - ESE 41 - 22 - - 1020.0 -
28/09:00am 24.8 - - - - ESE 41 46 22 25 1020.4 - -
28/08:30am 24.6 - - - - ESE 41 46 22 25 1020.1 - -
28/08:15am 24.7 - - - - ESE 41 - 22 - - 1019.7 -
28/08:00am 24.6 - - - - ESE 43 50 23 27 1019.9 - -
28/07:30am 24.8 - - - - E 39 44 21 24 1019.5 - -
28/07:15am 24.7 - - - - E 39 - 21 - - 1019.1 -
28/07:00am 24.8 - - - - ESE 39 44 21 24 1019.3 - -
28/06:30am 24.6 - - - - ESE 37 43 20 23 1019.1 - -
28/06:15am 24.4 - - - - ESE 37 - 20 - - 1018.7 -
28/05:30am 24.5 - - - - E 37 43 20 23 1018.9 - -
28/05:15am 24.6 - - - - E 39 - 21 - - 1018.4 -
28/05:00am 24.7 - - - - E 35 41 19 22 1018.6 - -
28/04:30am 24.4 - - - - E 39 44 21 24 1018.6 - -
28/04:15am 24.3 - - - - E 39 - 21 - - 1018.3 -
28/04:00am 24.7 - - - - E 39 48 21 26 1018.6 - -
28/03:30am 24.6 - - - - E 39 44 21 24 1018.7 - -
28/03:15am 24.4 - - - - E 41 - 22 - - 1018.4 -
28/03:00am 24.6 - - - - E 35 43 19 23 1018.9 - -
28/02:30am 24.4 - - - - E 37 41 20 22 1019.0 - -
28/02:15am 24.5 - - - - E 35 - 19 - - 1018.8 -
28/02:00am 24.6 - - - - E 37 46 20 25 1019.3 - -
28/01:30am 24.4 - - - - ESE 43 46 23 25 1019.5 - -
28/01:15am 24.5 - - - - E 37 - 20 - - 1019.4 -
28/01:00am 24.3 - - - - E 41 46 22 25 1019.9 - -
28/12:30am 24.4 - - - - E 37 44 20 24 1020.1 - -
28/12:15am 24.4 - - - - E 37 - 20 - - 1019.9 -
 
Date/Time
EST
Temp
°C
App
Temp
°C
Dew
Point
Rel
Hum
%
Delta-T
°C
Wind Press
QNH
hPa
Press
MSL
hPa
Rain
since 9 am
mm
Dir
 
Spd
km/h
Gust
km/h
Spd
kts
Gust
kts
27/11:30pm 24.5 - - - - E 39 44 21 24 1020.3 - -
27/11:15pm 24.8 - - - - E 35 - 19 - - 1020.1 -
27/11:00pm 24.5 - - - - E 37 43 20 23 1020.5 - -
27/10:30pm 24.4 - - - - E 35 41 19 22 1020.6 - -
27/10:15pm 24.6 - - - - E 39 - 21 - - 1020.4 -
27/10:00pm 24.5 - - - - E 39 44 21 24 1020.7 - -
27/09:30pm 24.5 - - - - E 39 44 21 24 1020.6 - -
27/09:15pm 24.3 - - - - ESE 37 - 20 - - 1020.2 -
27/09:00pm 24.3 - - - - ESE 35 41 19 22 1020.6 - -
27/08:30pm 24.6 - - - - ESE 37 43 20 23 1020.3 - -
27/08:15pm 24.5 - - - - ESE 35 - 19 - - 1020.0 -
27/08:00pm 24.5 - - - - ESE 33 39 18 21 1020.2 - -
27/07:30pm 24.4 - - - - ESE 33 39 18 21 1019.9 - -
27/07:15pm 24.6 - - - - ESE 33 - 18 - - 1019.3 -
27/07:00pm 24.5 - - - - ESE 33 39 18 21 1019.5 - -
27/06:30pm 24.6 - - - - ESE 33 37 18 20 1019.1 - -
27/06:15pm 24.6 - - - - ESE 32 - 17 - - 1018.7 -
27/05:30pm 24.8 - - - - ESE 30 33 16 18 1018.5 - -
27/05:15pm 24.7 - - - - ESE 32 - 17 - - 1018.1 -
27/05:00pm 24.7 - - - - ESE 32 35 17 19 1018.4 - -
27/04:30pm 24.7 - - - - ESE 33 35 18 19 1018.1 - -
27/04:15pm 24.8 - - - - ESE 32 - 17 - - 1017.7 -
27/04:00pm 24.8 - - - - ESE 32 35 17 19 1017.9 - -
27/03:30pm 24.6 - - - - ESE 32 35 17 19 1017.7 - -
27/03:15pm 24.7 - - - - ESE 32 - 17 - - 1017.3 -
27/03:00pm 24.7 - - - - ESE 33 35 18 19 1017.5 - -
27/02:30pm 24.8 - - - - ESE 32 35 17 19 1017.7 - -
27/02:15pm 24.7 - - - - ESE 32 - 17 - - 1017.5 -
27/02:00pm 24.5 - - - - SE 32 37 17 20 1018.0 - -
27/01:30pm 24.6 - - - - ESE 32 35 17 19 1018.4 - -
27/01:15pm 24.6 - - - - SE 32 - 17 - - 1018.3 -
27/01:00pm 24.7 - - - - ESE 32 35 17 19 1018.8 - -
27/12:30pm 24.7 - - - - ESE 32 35 17 19 1019.3 - -
27/12:15pm 24.7 - - - - ESE 32 - 17 - - 1019.2 -
27/12:00pm 24.6 - - - - ESE 32 35 17 19 1019.7 - -
27/11:30am 24.6 - - - - ESE 32 35 17 19 1020.0 - -
27/11:15am 24.7 - - - - ESE 32 - 17 - - 1019.9 -
27/11:00am 24.6 - - - - ESE 32 35 17 19 1020.2 - -
27/10:30am 24.8 - - - - ESE 32 35 17 19 1020.3 - -
27/10:15am 24.6 - - - - ESE 33 - 18 - - 1020.0 -
27/09:30am 24.6 - - - - ESE 32 37 17 20 1020.8 - -
27/09:15am 24.6 - - - - ESE 32 - 17 - - 1020.4 -
27/09:00am 24.6 - - - - ESE 32 37 17 20 1020.7 - -
27/08:30am 24.5 - - - - SE 32 35 17 19 1020.6 - -
27/08:15am 24.5 - - - - SE 30 - 16 - - 1020.3 -
27/08:00am 24.5 - - - - ESE 32 35 17 19 1020.5 - -
27/07:30am 24.5 - - - - ESE 32 35 17 19 1020.2 - -
27/07:15am 24.4 - - - - ESE 32 - 17 - - 1019.8 -
27/07:00am 24.2 - - - - ESE 32 37 17 20 1019.9 - -
27/06:30am 24.3 - - - - ESE 30 32 16 17 1019.6 - -
27/06:15am 24.4 - - - - ESE 28 - 15 - - 1019.1 -
27/06:00am 24.5 - - - - ESE 26 32 14 17 1019.3 - -
27/05:30am 24.4 - - - - E 28 32 15 17 1019.1 - -
27/05:15am 24.3 - - - - E 28 - 15 - - 1018.7 -
27/05:00am 24.4 - - - - E 28 32 15 17 1018.9 - -
27/04:30am 24.3 - - - - E 30 35 16 19 1018.8 - -
27/04:15am 24.2 - - - - E 30 - 16 - - 1018.4 -
27/04:00am 24.3 - - - - E 32 33 17 18 1018.7 - -
27/03:30am 24.5 - - - - E 32 35 17 19 1018.7 - -
27/03:15am 24.2 - - - - E 32 - 17 - - 1018.5 -
27/03:00am 24.2 - - - - E 32 35 17 19 1018.8 - -
27/02:30am 24.5 - - - - E 32 35 17 19 1019.0 - -
27/02:15am 24.4 - - - - ESE 33 - 18 - - 1018.7 -
27/02:00am 24.4 - - - - E 33 37 18 20 1019.0 - -
27/01:30am 24.4 - - - - ESE 32 35 17 19 1019.2 - -
27/01:15am 24.5 - - - - ESE 32 - 17 - - 1019.1 -
27/01:00am 24.4 - - - - ESE 32 37 17 20 1019.5 - -
27/12:30am 24.5 - - - - ESE 30 33 16 18 1019.8 - -
27/12:15am 24.3 - - - - ESE 30 - 16 - - 1019.5 -
27/12:00am 24.6 - - - - ESE 30 33 16 18 1020.0 - -
 
Date/Time
EST
Temp
°C
App
Temp
°C
Dew
Point
Rel
Hum
%
Delta-T
°C
Wind Press
QNH
hPa
Press
MSL
hPa
Rain
since 9 am
mm
Dir
 
Spd
km/h
Gust
km/h
Spd
kts
Gust
kts
26/11:30pm 24.7 - - - - ESE 28 33 15 18 1020.4 - -
26/11:15pm 24.6 - - - - ESE 26 - 14 - - 1020.3 -
26/11:00pm 24.7 - - - - ESE 28 30 15 16 1020.6 - -
26/10:30pm 24.6 - - - - ESE 28 32 15 17 1020.5 - -
26/10:15pm 24.7 - - - - ESE 28 - 15 - - 1020.2 -
26/10:00pm 24.5 - - - - E 28 32 15 17 1020.7 - -
26/09:30pm 24.7 - - - - E 28 32 15 17 1020.7 - -
26/09:15pm 24.6 - - - - ESE 28 - 15 - - 1020.4 -
26/09:00pm 24.7 - - - - E 30 33 16 18 1020.6 - -
26/08:30pm 24.7 - - - - E 26 32 14 17 1020.5 - -
26/08:15pm 24.8 - - - - ESE 26 - 14 - - 1020.0 -
26/08:00pm 24.7 - - - - E 28 30 15 16 1020.2 - -
26/07:30pm 24.6 - - - - E 26 30 14 16 1019.9 - -
26/07:15pm 24.7 - - - - ESE 26 - 14 - - 1019.4 -
26/07:00pm 24.8 - - - - ESE 26 32 14 17 1019.4 - -
26/06:30pm 24.7 - - - - E 28 32 15 17 1018.9 - -
26/06:15pm 24.8 - - - - E 30 - 16 - - 1018.3 -
26/06:00pm 24.7 - - - - E 30 33 16 18 1018.3 - -
26/05:30pm 24.8 - - - - E 30 35 16 19 1018.2 - -
26/05:15pm 24.9 - - - - E 30 - 16 - - 1017.6 -
26/05:00pm 24.8 - - - - E 32 35 17 19 1017.7 - -
26/04:30pm 25.1 - - - - ESE 32 35 17 19 1017.3 - -
26/04:15pm 24.9 - - - - E 33 - 18 - - 1016.8 -
26/04:00pm 24.9 - - - - E 32 35 17 19 1016.9 - -
26/03:30pm 24.8 - - - - ESE 35 39 19 21 1016.5 - -
26/03:15pm 24.8 - - - - ESE 35 - 19 - - 1016.2 -
26/03:00pm 24.9 - - - - ESE 33 39 18 21 1016.6 - -
26/02:30pm 24.9 - - - - ESE 35 41 19 22 1016.6 - -
26/02:15pm 24.9 - - - - ESE 37 - 20 - - 1016.2 -
26/02:00pm 24.8 - - - - ESE 39 44 21 24 1016.6 - -
26/01:30pm 24.9 - - - - E 37 43 20 23 1017.1 - -
26/01:15pm 24.9 - - - - ESE 37 - 20 - - 1016.9 -
26/01:00pm 24.8 - - - - E 39 44 21 24 1017.2 - -
26/12:30pm 24.8 - - - - E 32 39 17 21 1017.5 - -
26/12:15pm 24.5 - - - - ESE 28 - 15 - - 1017.4 -
26/12:00pm 24.0 - - - - ESE 30 35 16 19 1017.9 - -
26/11:30am 23.8 - - - - E 33 41 18 22 1018.5 - -
26/11:15am 23.9 - - - - ENE 35 - 19 - - 1018.5 -
26/11:14am 24.1 - - - - ENE 37 39 20 21 1018.8 - -
26/11:00am 24.4 - - - - ESE 33 39 18 21 1018.8 - -
26/10:30am 23.9 - - - - ESE 33 39 18 21 1019.1 - -
26/10:15am 23.7 - - - - ESE 37 - 20 - - 1019.1 -
26/10:00am 23.4 - - - - ESE 41 48 22 26 1019.5 - -
26/09:30am 23.4 - - - - ESE 41 52 22 28 1019.6 - -
26/09:15am 23.3 - - - - ESE 35 - 19 - - 1019.3 -
26/09:00am 23.9 - - - - ESE 37 46 20 25 1019.6 - -
26/08:30am 24.1 - - - - ESE 35 41 19 22 1019.3 - -
26/08:15am 23.9 - - - - ESE 37 - 20 - - 1018.8 -
26/08:00am 24.0 - - - - ESE 37 43 20 23 1019.1 - -
26/07:30am 23.8 - - - - ESE 33 39 18 21 1018.8 - -
26/07:15am 23.5 - - - - E 32 - 17 - - 1018.5 -
26/07:00am 23.7 - - - - E 35 41 19 22 1018.7 - -
26/06:30am 24.5 - - - - ESE 32 37 17 20 1018.1 - -
26/06:15am 24.5 - - - - ESE 32 - 17 - - 1017.8 -
26/06:00am 24.6 - - - - ESE 32 35 17 19 1017.8 - -
26/05:30am 24.4 - - - - ESE 30 35 16 19 1017.7 - -
26/05:15am 24.5 - - - - E 30 - 16 - - 1017.5 -
26/05:00am 24.5 - - - - E 30 33 16 18 1017.7 - -
26/04:30am 24.4 - - - - E 30 33 16 18 1017.7 - -
26/04:15am 24.5 - - - - E 28 - 15 - - 1017.5 -
26/04:00am 24.5 - - - - E 28 33 15 18 1017.7 - -
26/03:30am 24.4 - - - - E 30 35 16 19 1017.8 - -
26/03:15am 24.6 - - - - E 32 - 17 - - 1017.5 -
26/03:00am 24.5 - - - - E 32 35 17 19 1017.9 - -
26/02:30am 24.7 - - - - E 26 32 14 17 1018.1 - -
26/02:15am 24.5 - - - - E 26 - 14 - - 1018.0 -
26/02:00am 24.6 - - - - E 30 33 16 18 1018.5 - -
26/01:30am 24.7 - - - - E 32 35 17 19 1018.8 - -
26/01:15am 24.6 - - - - E 33 - 18 - - 1018.6 -
26/01:00am 24.6 - - - - E 32 35 17 19 1018.9 - -
26/12:30am 24.6 - - - - E 32 35 17 19 1019.1 - -
26/12:15am 24.8 - - - - E 30 - 16 - - 1019.0 -
26/12:00am 24.7 - - - - E 32 35 17 19 1019.4 - -
 
Date/Time
EST
Temp
°C
App
Temp
°C
Dew
Point
Rel
Hum
%
Delta-T
°C
Wind Press
QNH
hPa
Press
MSL
hPa
Rain
since 9 am
mm
Dir
 
Spd
km/h
Gust
km/h
Spd
kts
Gust
kts
25/11:30pm 24.7 - - - - E 32 35 17 19 1019.8 - -
25/11:15pm 24.8 - - - - E 30 - 16 - - 1019.5 -
25/11:00pm 24.7 - - - - E 32 37 17 20 1019.9 - -
25/10:30pm 24.9 - - - - E 32 37 17 20 1020.1 - -
25/10:15pm 24.9 - - - - E 32 - 17 - - 1019.8 -
25/10:00pm 24.6 - - - - E 30 35 16 19 1020.1 - -
25/09:30pm 24.9 - - - - E 30 35 16 19 1019.9 - -
25/09:15pm 24.7 - - - - E 30 - 16 - - 1019.5 -
25/09:00pm 24.7 - - - - E 28 32 15 17 1019.8 - -
25/08:30pm 24.8 - - - - E 26 30 14 16 1019.7 - -
25/08:15pm 24.7 - - - - E 24 - 13 - - 1019.3 -
25/08:00pm 24.8 - - - - ESE 26 28 14 15 1019.5 - -
25/07:30pm 24.9 - - - - E 22 26 12 14 1019.4 - -
25/07:15pm 24.8 - - - - E 22 - 12 - - 1018.8 -
25/07:00pm 24.5 - - - - E 24 28 13 15 1018.9 - -
25/06:30pm 25.0 - - - - E 26 30 14 16 1018.6 - -
25/06:15pm 24.8 - - - - ESE 24 - 13 - - 1018.0 -
25/06:00pm 24.8 - - - - ESE 26 30 14 16 1018.2 - -
25/05:30pm 24.9 - - - - ESE 26 30 14 16 1017.8 - -
25/05:15pm 24.8 - - - - ESE 24 - 13 - - 1017.5 -
25/05:00pm 24.8 - - - - ESE 26 30 14 16 1017.5 - -
25/04:30pm 24.9 - - - - ESE 26 30 14 16 1017.3 - -
25/04:15pm 25.0 - - - - ESE 26 - 14 - - 1016.9 -
25/04:00pm 24.9 - - - - ESE 26 28 14 15 1016.9 - -
25/03:30pm 24.7 - - - - SE 28 32 15 17 1016.8 - -
25/03:15pm 24.9 - - - - ESE 24 - 13 - - 1016.5 -
25/03:00pm 24.9 - - - - ESE 24 28 13 15 1016.9 - -
25/02:30pm 24.9 - - - - ESE 24 28 13 15 1017.2 - -
25/02:15pm 24.9 - - - - ESE 24 - 13 - - 1017.1 -
25/02:00pm 25.0 - - - - ESE 24 28 13 15 1017.5 - -
25/01:30pm 24.9 - - - - ESE 24 28 13 15 1017.7 - -
25/01:15pm 24.9 - - - - ESE 26 - 14 - - 1017.7 -

Other Formats:

Comma delimited format used in spreadsheet applications
http://www.bom.gov.au/fwo/IDQ60801/IDQ60801.94289.axf

JavaScript Object Notation format (JSON) in row-major order
http://www.bom.gov.au/fwo/IDQ60801/IDQ60801.94289.json